sensor_id;sensor_type;location;lat;lon;timestamp;P1;durP1;ratioP1;P2;durP2;ratioP2
17065;SDS011;23120;52.336;21.182;2023-05-29T00:00:46;0.20;;;0.20;;
17065;SDS011;23120;52.336;21.182;2023-05-29T00:03:13;0.20;;;0.20;;
17065;SDS011;23120;52.336;21.182;2023-05-29T00:05:40;0.20;;;0.20;;
17065;SDS011;23120;52.336;21.182;2023-05-29T00:08:09;0.20;;;0.20;;
17065;SDS011;23120;52.336;21.182;2023-05-29T00:10:36;0.17;;;0.17;;
17065;SDS011;23120;52.336;21.182;2023-05-29T00:13:03;0.20;;;0.20;;
17065;SDS011;23120;52.336;21.182;2023-05-29T00:15:31;0.20;;;0.20;;
17065;SDS011;23120;52.336;21.182;2023-05-29T00:17:58;0.20;;;0.20;;
17065;SDS011;23120;52.336;21.182;2023-05-29T00:20:26;0.20;;;0.20;;
17065;SDS011;23120;52.336;21.182;2023-05-29T00:22:53;0.20;;;0.20;;
17065;SDS011;23120;52.336;21.182;2023-05-29T00:25:21;0.20;;;0.20;;
17065;SDS011;23120;52.336;21.182;2023-05-29T00:27:48;0.20;;;0.20;;
17065;SDS011;23120;52.336;21.182;2023-05-29T00:30:16;0.20;;;0.20;;
17065;SDS011;23120;52.336;21.182;2023-05-29T00:32:43;0.20;;;0.20;;
17065;SDS011;23120;52.336;21.182;2023-05-29T00:35:10;0.20;;;0.20;;
17065;SDS011;23120;52.336;21.182;2023-05-29T00:37:37;0.20;;;0.20;;
17065;SDS011;23120;52.336;21.182;2023-05-29T00:40:05;0.20;;;0.20;;
17065;SDS011;23120;52.336;21.182;2023-05-29T00:42:34;0.20;;;0.20;;
17065;SDS011;23120;52.336;21.182;2023-05-29T00:45:01;0.20;;;0.20;;
17065;SDS011;23120;52.336;21.182;2023-05-29T00:47:28;0.20;;;0.20;;
17065;SDS011;23120;52.336;21.182;2023-05-29T00:49:56;0.20;;;0.20;;
17065;SDS011;23120;52.336;21.182;2023-05-29T00:52:23;0.20;;;0.20;;
17065;SDS011;23120;52.336;21.182;2023-05-29T00:54:52;0.20;;;0.20;;
17065;SDS011;23120;52.336;21.182;2023-05-29T00:57:21;0.20;;;0.20;;
17065;SDS011;23120;52.336;21.182;2023-05-29T00:59:50;0.20;;;0.20;;
17065;SDS011;23120;52.336;21.182;2023-05-29T01:02:17;0.20;;;0.20;;
17065;SDS011;23120;52.336;21.182;2023-05-29T01:04:45;0.20;;;0.20;;
17065;SDS011;23120;52.336;21.182;2023-05-29T01:07:12;0.20;;;0.20;;
17065;SDS011;23120;52.336;21.182;2023-05-29T01:09:41;0.20;;;0.20;;
17065;SDS011;23120;52.336;21.182;2023-05-29T01:12:13;0.13;;;0.13;;
17065;SDS011;23120;52.336;21.182;2023-05-29T01:14:47;0.10;;;0.10;;
17065;SDS011;23120;52.336;21.182;2023-05-29T01:17:28;0.20;;;0.20;;
17065;SDS011;23120;52.336;21.182;2023-05-29T01:20:06;0.20;;;0.20;;
17065;SDS011;23120;52.336;21.182;2023-05-29T01:22:45;0.20;;;0.20;;
17065;SDS011;23120;52.336;21.182;2023-05-29T01:25:30;0.20;;;0.20;;
17065;SDS011;23120;52.336;21.182;2023-05-29T01:28:08;0.20;;;0.20;;
17065;SDS011;23120;52.336;21.182;2023-05-29T01:30:38;0.20;;;0.20;;
17065;SDS011;23120;52.336;21.182;2023-05-29T01:33:07;0.20;;;0.20;;
17065;SDS011;23120;52.336;21.182;2023-05-29T01:35:34;0.20;;;0.20;;
17065;SDS011;23120;52.336;21.182;2023-05-29T01:38:01;0.20;;;0.20;;
17065;SDS011;23120;52.336;21.182;2023-05-29T01:40:28;0.20;;;0.20;;
17065;SDS011;23120;52.336;21.182;2023-05-29T01:42:55;0.20;;;0.20;;
17065;SDS011;23120;52.336;21.182;2023-05-29T01:45:23;0.20;;;0.20;;
17065;SDS011;23120;52.336;21.182;2023-05-29T01:47:51;0.20;;;0.20;;
17065;SDS011;23120;52.336;21.182;2023-05-29T01:50:18;0.20;;;0.20;;
17065;SDS011;23120;52.336;21.182;2023-05-29T01:52:46;0.20;;;0.20;;
17065;SDS011;23120;52.336;21.182;2023-05-29T01:55:13;0.20;;;0.20;;
17065;SDS011;23120;52.336;21.182;2023-05-29T01:57:41;0.20;;;0.20;;
17065;SDS011;23120;52.336;21.182;2023-05-29T02:00:08;0.20;;;0.20;;
17065;SDS011;23120;52.336;21.182;2023-05-29T02:02:41;0.20;;;0.20;;
17065;SDS011;23120;52.336;21.182;2023-05-29T02:05:09;0.20;;;0.20;;
17065;SDS011;23120;52.336;21.182;2023-05-29T02:07:36;0.20;;;0.20;;
17065;SDS011;23120;52.336;21.182;2023-05-29T02:10:04;0.20;;;0.20;;
17065;SDS011;23120;52.336;21.182;2023-05-29T02:12:31;0.20;;;0.20;;
17065;SDS011;23120;52.336;21.182;2023-05-29T02:14:58;0.20;;;0.20;;
17065;SDS011;23120;52.336;21.182;2023-05-29T02:17:27;0.20;;;0.20;;
17065;SDS011;23120;52.336;21.182;2023-05-29T02:19:55;0.20;;;0.20;;
17065;SDS011;23120;52.336;21.182;2023-05-29T02:22:22;0.20;;;0.20;;
17065;SDS011;23120;52.336;21.182;2023-05-29T02:24:49;0.20;;;0.20;;
17065;SDS011;23120;52.336;21.182;2023-05-29T02:27:16;0.20;;;0.20;;
17065;SDS011;23120;52.336;21.182;2023-05-29T02:29:43;0.20;;;0.20;;
17065;SDS011;23120;52.336;21.182;2023-05-29T02:32:10;0.20;;;0.20;;
17065;SDS011;23120;52.336;21.182;2023-05-29T02:34:37;0.20;;;0.20;;
17065;SDS011;23120;52.336;21.182;2023-05-29T02:37:05;0.20;;;0.20;;
17065;SDS011;23120;52.336;21.182;2023-05-29T02:39:33;0.20;;;0.20;;
17065;SDS011;23120;52.336;21.182;2023-05-29T02:42:00;0.20;;;0.20;;
17065;SDS011;23120;52.336;21.182;2023-05-29T02:44:27;0.20;;;0.20;;
17065;SDS011;23120;52.336;21.182;2023-05-29T02:46:54;0.20;;;0.20;;
17065;SDS011;23120;52.336;21.182;2023-05-29T02:49:21;0.20;;;0.20;;
17065;SDS011;23120;52.336;21.182;2023-05-29T02:51:48;0.20;;;0.20;;
17065;SDS011;23120;52.336;21.182;2023-05-29T02:54:16;0.20;;;0.20;;
17065;SDS011;23120;52.336;21.182;2023-05-29T02:56:43;0.20;;;0.20;;
17065;SDS011;23120;52.336;21.182;2023-05-29T02:59:10;0.20;;;0.20;;
17065;SDS011;23120;52.336;21.182;2023-05-29T03:01:37;0.20;;;0.20;;
17065;SDS011;23120;52.336;21.182;2023-05-29T03:04:08;0.20;;;0.20;;
17065;SDS011;23120;52.336;21.182;2023-05-29T03:06:38;0.20;;;0.20;;
17065;SDS011;23120;52.336;21.182;2023-05-29T03:09:05;0.20;;;0.20;;
17065;SDS011;23120;52.336;21.182;2023-05-29T03:11:34;0.20;;;0.20;;
17065;SDS011;23120;52.336;21.182;2023-05-29T03:14:01;0.20;;;0.20;;
17065;SDS011;23120;52.336;21.182;2023-05-29T03:16:28;0.20;;;0.20;;
17065;SDS011;23120;52.336;21.182;2023-05-29T03:18:55;0.20;;;0.20;;
17065;SDS011;23120;52.336;21.182;2023-05-29T03:21:23;0.20;;;0.20;;
17065;SDS011;23120;52.336;21.182;2023-05-29T03:23:50;0.20;;;0.20;;
17065;SDS011;23120;52.336;21.182;2023-05-29T03:26:18;0.20;;;0.20;;
17065;SDS011;23120;52.336;21.182;2023-05-29T03:28:49;0.20;;;0.20;;
17065;SDS011;23120;52.336;21.182;2023-05-29T03:31:17;0.20;;;0.20;;
17065;SDS011;23120;52.336;21.182;2023-05-29T03:33:44;0.20;;;0.20;;
17065;SDS011;23120;52.336;21.182;2023-05-29T03:36:31;0.20;;;0.20;;
17065;SDS011;23120;52.336;21.182;2023-05-29T03:38:58;0.20;;;0.20;;
17065;SDS011;23120;52.336;21.182;2023-05-29T03:41:26;0.20;;;0.20;;
17065;SDS011;23120;52.336;21.182;2023-05-29T03:43:54;0.20;;;0.20;;
17065;SDS011;23120;52.336;21.182;2023-05-29T03:46:24;0.20;;;0.20;;
17065;SDS011;23120;52.336;21.182;2023-05-29T03:48:52;0.20;;;0.20;;
17065;SDS011;23120;52.336;21.182;2023-05-29T03:51:20;0.10;;;0.10;;
17065;SDS011;23120;52.336;21.182;2023-05-29T03:53:48;0.20;;;0.20;;
17065;SDS011;23120;52.336;21.182;2023-05-29T03:56:15;0.20;;;0.20;;
17065;SDS011;23120;52.336;21.182;2023-05-29T03:58:42;0.20;;;0.20;;
17065;SDS011;23120;52.336;21.182;2023-05-29T04:01:10;0.20;;;0.20;;
17065;SDS011;23120;52.336;21.182;2023-05-29T04:03:37;0.20;;;0.20;;
17065;SDS011;23120;52.336;21.182;2023-05-29T04:06:04;0.20;;;0.20;;
17065;SDS011;23120;52.336;21.182;2023-05-29T04:08:32;0.20;;;0.20;;
17065;SDS011;23120;52.336;21.182;2023-05-29T04:10:58;0.20;;;0.20;;
17065;SDS011;23120;52.336;21.182;2023-05-29T04:13:27;0.20;;;0.20;;
17065;SDS011;23120;52.336;21.182;2023-05-29T04:15:54;0.20;;;0.20;;
17065;SDS011;23120;52.336;21.182;2023-05-29T04:18:22;0.20;;;0.20;;
17065;SDS011;23120;52.336;21.182;2023-05-29T04:20:50;0.20;;;0.20;;
17065;SDS011;23120;52.336;21.182;2023-05-29T04:23:19;0.20;;;0.20;;
17065;SDS011;23120;52.336;21.182;2023-05-29T04:25:48;0.20;;;0.20;;
17065;SDS011;23120;52.336;21.182;2023-05-29T04:28:20;0.20;;;0.20;;
17065;SDS011;23120;52.336;21.182;2023-05-29T04:30:48;0.20;;;0.20;;
17065;SDS011;23120;52.336;21.182;2023-05-29T04:33:16;0.20;;;0.20;;
17065;SDS011;23120;52.336;21.182;2023-05-29T04:35:48;0.20;;;0.20;;
17065;SDS011;23120;52.336;21.182;2023-05-29T04:38:16;0.20;;;0.20;;
17065;SDS011;23120;52.336;21.182;2023-05-29T04:40:51;0.20;;;0.20;;
17065;SDS011;23120;52.336;21.182;2023-05-29T04:43:24;0.20;;;0.20;;
17065;SDS011;23120;52.336;21.182;2023-05-29T04:46:00;0.30;;;0.30;;
17065;SDS011;23120;52.336;21.182;2023-05-29T04:48:49;0.30;;;0.30;;
17065;SDS011;23120;52.336;21.182;2023-05-29T04:51:19;0.30;;;0.30;;
17065;SDS011;23120;52.336;21.182;2023-05-29T04:53:48;0.20;;;0.20;;
17065;SDS011;23120;52.336;21.182;2023-05-29T04:56:16;0.20;;;0.20;;
17065;SDS011;23120;52.336;21.182;2023-05-29T04:58:46;0.20;;;0.20;;
17065;SDS011;23120;52.336;21.182;2023-05-29T05:01:13;0.30;;;0.30;;
17065;SDS011;23120;52.336;21.182;2023-05-29T05:03:41;0.20;;;0.20;;
17065;SDS011;23120;52.336;21.182;2023-05-29T05:06:09;0.20;;;0.20;;
17065;SDS011;23120;52.336;21.182;2023-05-29T05:08:42;0.30;;;0.30;;
17065;SDS011;23120;52.336;21.182;2023-05-29T05:11:09;0.30;;;0.30;;
17065;SDS011;23120;52.336;21.182;2023-05-29T05:13:39;0.30;;;0.30;;
17065;SDS011;23120;52.336;21.182;2023-05-29T05:16:06;0.30;;;0.30;;
17065;SDS011;23120;52.336;21.182;2023-05-29T05:18:36;0.27;;;0.27;;
17065;SDS011;23120;52.336;21.182;2023-05-29T05:21:05;0.20;;;0.20;;
17065;SDS011;23120;52.336;21.182;2023-05-29T05:23:34;0.20;;;0.20;;
17065;SDS011;23120;52.336;21.182;2023-05-29T05:26:03;0.20;;;0.20;;
17065;SDS011;23120;52.336;21.182;2023-05-29T05:28:32;0.20;;;0.20;;
17065;SDS011;23120;52.336;21.182;2023-05-29T05:31:00;0.20;;;0.20;;
17065;SDS011;23120;52.336;21.182;2023-05-29T05:33:30;0.20;;;0.20;;
17065;SDS011;23120;52.336;21.182;2023-05-29T05:35:57;0.20;;;0.20;;
17065;SDS011;23120;52.336;21.182;2023-05-29T05:38:24;0.20;;;0.20;;
17065;SDS011;23120;52.336;21.182;2023-05-29T05:40:51;0.20;;;0.20;;
17065;SDS011;23120;52.336;21.182;2023-05-29T05:43:26;0.20;;;0.20;;
17065;SDS011;23120;52.336;21.182;2023-05-29T05:46:08;0.20;;;0.20;;
17065;SDS011;23120;52.336;21.182;2023-05-29T05:48:36;0.20;;;0.20;;
17065;SDS011;23120;52.336;21.182;2023-05-29T05:51:03;0.20;;;0.20;;
17065;SDS011;23120;52.336;21.182;2023-05-29T05:53:31;0.20;;;0.20;;
17065;SDS011;23120;52.336;21.182;2023-05-29T05:55:58;0.10;;;0.10;;
17065;SDS011;23120;52.336;21.182;2023-05-29T05:58:26;0.27;;;0.27;;
17065;SDS011;23120;52.336;21.182;2023-05-29T06:00:55;0.20;;;0.20;;
17065;SDS011;23120;52.336;21.182;2023-05-29T06:03:23;0.20;;;0.20;;
17065;SDS011;23120;52.336;21.182;2023-05-29T06:06:01;0.20;;;0.20;;
17065;SDS011;23120;52.336;21.182;2023-05-29T06:08:28;0.10;;;0.10;;
17065;SDS011;23120;52.336;21.182;2023-05-29T06:10:56;0.10;;;0.10;;
17065;SDS011;23120;52.336;21.182;2023-05-29T06:13:23;0.10;;;0.10;;
17065;SDS011;23120;52.336;21.182;2023-05-29T06:15:57;0.10;;;0.10;;
17065;SDS011;23120;52.336;21.182;2023-05-29T06:18:24;0.20;;;0.20;;
17065;SDS011;23120;52.336;21.182;2023-05-29T06:20:52;0.10;;;0.10;;
17065;SDS011;23120;52.336;21.182;2023-05-29T06:23:19;0.10;;;0.10;;
17065;SDS011;23120;52.336;21.182;2023-05-29T06:25:48;0.20;;;0.20;;
17065;SDS011;23120;52.336;21.182;2023-05-29T06:28:14;0.10;;;0.10;;
17065;SDS011;23120;52.336;21.182;2023-05-29T06:30:41;0.10;;;0.10;;
17065;SDS011;23120;52.336;21.182;2023-05-29T06:33:09;0.10;;;0.10;;
17065;SDS011;23120;52.336;21.182;2023-05-29T06:35:38;0.10;;;0.10;;
17065;SDS011;23120;52.336;21.182;2023-05-29T06:38:05;0.10;;;0.10;;
17065;SDS011;23120;52.336;21.182;2023-05-29T06:40:32;0.10;;;0.10;;
17065;SDS011;23120;52.336;21.182;2023-05-29T06:42:59;0.10;;;0.10;;
17065;SDS011;23120;52.336;21.182;2023-05-29T06:45:37;0.10;;;0.10;;
17065;SDS011;23120;52.336;21.182;2023-05-29T06:48:04;0.10;;;0.10;;
17065;SDS011;23120;52.336;21.182;2023-05-29T06:50:33;0.10;;;0.10;;
17065;SDS011;23120;52.336;21.182;2023-05-29T06:53:15;0.10;;;0.10;;
17065;SDS011;23120;52.336;21.182;2023-05-29T06:55:47;0.10;;;0.10;;
17065;SDS011;23120;52.336;21.182;2023-05-29T06:58:14;0.10;;;0.10;;
17065;SDS011;23120;52.336;21.182;2023-05-29T07:00:41;0.10;;;0.10;;
17065;SDS011;23120;52.336;21.182;2023-05-29T07:03:22;0.00;;;0.00;;
17065;SDS011;23120;52.336;21.182;2023-05-29T07:05:50;0.10;;;0.10;;
17065;SDS011;23120;52.336;21.182;2023-05-29T07:08:17;0.00;;;0.00;;
17065;SDS011;23120;52.336;21.182;2023-05-29T07:10:44;0.10;;;0.10;;
17065;SDS011;23120;52.336;21.182;2023-05-29T07:13:14;0.00;;;0.00;;
17065;SDS011;23120;52.336;21.182;2023-05-29T07:15:43;0.00;;;0.00;;
17065;SDS011;23120;52.336;21.182;2023-05-29T07:18:11;0.00;;;0.00;;
17065;SDS011;23120;52.336;21.182;2023-05-29T07:20:38;0.10;;;0.10;;
17065;SDS011;23120;52.336;21.182;2023-05-29T07:23:09;0.10;;;0.10;;
17065;SDS011;23120;52.336;21.182;2023-05-29T07:25:36;0.10;;;0.10;;
17065;SDS011;23120;52.336;21.182;2023-05-29T07:28:03;0.10;;;0.10;;
17065;SDS011;23120;52.336;21.182;2023-05-29T07:30:31;0.10;;;0.10;;
17065;SDS011;23120;52.336;21.182;2023-05-29T07:32:58;0.00;;;0.00;;
17065;SDS011;23120;52.336;21.182;2023-05-29T07:35:25;0.00;;;0.00;;
17065;SDS011;23120;52.336;21.182;2023-05-29T07:37:52;0.00;;;0.00;;
17065;SDS011;23120;52.336;21.182;2023-05-29T07:40:22;0.00;;;0.00;;
17065;SDS011;23120;52.336;21.182;2023-05-29T07:43:09;0.00;;;0.00;;
17065;SDS011;23120;52.336;21.182;2023-05-29T07:45:46;0.10;;;0.10;;
17065;SDS011;23120;52.336;21.182;2023-05-29T07:48:13;0.00;;;0.00;;
17065;SDS011;23120;52.336;21.182;2023-05-29T07:50:41;0.00;;;0.00;;
17065;SDS011;23120;52.336;21.182;2023-05-29T07:53:08;0.10;;;0.10;;
17065;SDS011;23120;52.336;21.182;2023-05-29T07:55:39;0.10;;;0.10;;
17065;SDS011;23120;52.336;21.182;2023-05-29T07:58:06;0.10;;;0.10;;
17065;SDS011;23120;52.336;21.182;2023-05-29T08:00:34;0.10;;;0.10;;
17065;SDS011;23120;52.336;21.182;2023-05-29T08:03:03;0.10;;;0.10;;
17065;SDS011;23120;52.336;21.182;2023-05-29T08:05:52;0.10;;;0.10;;
17065;SDS011;23120;52.336;21.182;2023-05-29T08:08:21;0.00;;;0.00;;
17065;SDS011;23120;52.336;21.182;2023-05-29T08:10:49;0.10;;;0.10;;
17065;SDS011;23120;52.336;21.182;2023-05-29T08:13:16;0.10;;;0.10;;
17065;SDS011;23120;52.336;21.182;2023-05-29T08:15:44;0.10;;;0.10;;
17065;SDS011;23120;52.336;21.182;2023-05-29T08:18:10;0.00;;;0.00;;
17065;SDS011;23120;52.336;21.182;2023-05-29T08:20:37;0.10;;;0.10;;
17065;SDS011;23120;52.336;21.182;2023-05-29T08:23:05;0.10;;;0.10;;
17065;SDS011;23120;52.336;21.182;2023-05-29T08:25:31;0.10;;;0.10;;
17065;SDS011;23120;52.336;21.182;2023-05-29T08:28:00;0.00;;;0.00;;
17065;SDS011;23120;52.336;21.182;2023-05-29T08:30:27;0.10;;;0.10;;
17065;SDS011;23120;52.336;21.182;2023-05-29T08:32:53;0.10;;;0.10;;
17065;SDS011;23120;52.336;21.182;2023-05-29T08:35:20;0.00;;;0.00;;
17065;SDS011;23120;52.336;21.182;2023-05-29T08:37:47;0.10;;;0.10;;
17065;SDS011;23120;52.336;21.182;2023-05-29T08:40:14;0.10;;;0.10;;
17065;SDS011;23120;52.336;21.182;2023-05-29T08:42:43;0.10;;;0.10;;
17065;SDS011;23120;52.336;21.182;2023-05-29T08:45:14;0.10;;;0.10;;
17065;SDS011;23120;52.336;21.182;2023-05-29T08:47:41;0.10;;;0.10;;
17065;SDS011;23120;52.336;21.182;2023-05-29T08:50:09;0.10;;;0.10;;
17065;SDS011;23120;52.336;21.182;2023-05-29T08:52:36;0.08;;;0.08;;
17065;SDS011;23120;52.336;21.182;2023-05-29T08:55:05;0.10;;;0.10;;
17065;SDS011;23120;52.336;21.182;2023-05-29T08:57:32;0.17;;;0.17;;
17065;SDS011;23120;52.336;21.182;2023-05-29T09:00:03;0.10;;;0.10;;
17065;SDS011;23120;52.336;21.182;2023-05-29T09:02:36;0.10;;;0.10;;
17065;SDS011;23120;52.336;21.182;2023-05-29T09:05:02;0.00;;;0.00;;
17065;SDS011;23120;52.336;21.182;2023-05-29T09:07:31;0.00;;;0.00;;
17065;SDS011;23120;52.336;21.182;2023-05-29T09:09:58;0.28;;;0.28;;
17065;SDS011;23120;52.336;21.182;2023-05-29T09:12:25;0.10;;;0.10;;
17065;SDS011;23120;52.336;21.182;2023-05-29T09:14:53;0.00;;;0.00;;
17065;SDS011;23120;52.336;21.182;2023-05-29T09:17:19;0.10;;;0.10;;
17065;SDS011;23120;52.336;21.182;2023-05-29T09:19:48;0.00;;;0.00;;
17065;SDS011;23120;52.336;21.182;2023-05-29T09:22:16;0.00;;;0.00;;
17065;SDS011;23120;52.336;21.182;2023-05-29T09:24:46;0.03;;;0.03;;
17065;SDS011;23120;52.336;21.182;2023-05-29T09:27:14;0.10;;;0.10;;
17065;SDS011;23120;52.336;21.182;2023-05-29T09:29:42;0.00;;;0.00;;
17065;SDS011;23120;52.336;21.182;2023-05-29T09:32:10;0.00;;;0.00;;
17065;SDS011;23120;52.336;21.182;2023-05-29T09:34:38;0.10;;;0.10;;
17065;SDS011;23120;52.336;21.182;2023-05-29T09:37:07;0.00;;;0.00;;
17065;SDS011;23120;52.336;21.182;2023-05-29T09:39:43;0.00;;;0.00;;
17065;SDS011;23120;52.336;21.182;2023-05-29T09:42:11;0.10;;;0.10;;
17065;SDS011;23120;52.336;21.182;2023-05-29T09:44:39;0.00;;;0.00;;
17065;SDS011;23120;52.336;21.182;2023-05-29T09:47:07;0.00;;;0.00;;
17065;SDS011;23120;52.336;21.182;2023-05-29T09:49:34;0.00;;;0.00;;
17065;SDS011;23120;52.336;21.182;2023-05-29T09:52:03;0.00;;;0.00;;
17065;SDS011;23120;52.336;21.182;2023-05-29T09:54:34;0.00;;;0.00;;
17065;SDS011;23120;52.336;21.182;2023-05-29T09:57:02;0.10;;;0.10;;
17065;SDS011;23120;52.336;21.182;2023-05-29T09:59:30;0.10;;;0.10;;
17065;SDS011;23120;52.336;21.182;2023-05-29T10:02:00;0.10;;;0.10;;
17065;SDS011;23120;52.336;21.182;2023-05-29T10:04:29;0.13;;;0.13;;
17065;SDS011;23120;52.336;21.182;2023-05-29T10:06:57;0.00;;;0.00;;
17065;SDS011;23120;52.336;21.182;2023-05-29T10:09:30;0.00;;;0.00;;
17065;SDS011;23120;52.336;21.182;2023-05-29T10:12:01;0.00;;;0.00;;
17065;SDS011;23120;52.336;21.182;2023-05-29T10:14:33;0.00;;;0.00;;
17065;SDS011;23120;52.336;21.182;2023-05-29T10:17:01;0.00;;;0.00;;
17065;SDS011;23120;52.336;21.182;2023-05-29T10:19:33;0.00;;;0.00;;
17065;SDS011;23120;52.336;21.182;2023-05-29T10:22:04;0.00;;;0.00;;
17065;SDS011;23120;52.336;21.182;2023-05-29T10:24:32;0.00;;;0.00;;
17065;SDS011;23120;52.336;21.182;2023-05-29T10:26:59;0.00;;;0.00;;
17065;SDS011;23120;52.336;21.182;2023-05-29T10:29:29;0.00;;;0.00;;
17065;SDS011;23120;52.336;21.182;2023-05-29T10:32:03;0.00;;;0.00;;
17065;SDS011;23120;52.336;21.182;2023-05-29T10:34:36;0.00;;;0.00;;
17065;SDS011;23120;52.336;21.182;2023-05-29T10:37:09;0.00;;;0.00;;
17065;SDS011;23120;52.336;21.182;2023-05-29T10:39:44;0.00;;;0.00;;
17065;SDS011;23120;52.336;21.182;2023-05-29T10:51:05;0.00;;;0.00;;
17065;SDS011;23120;52.336;21.182;2023-05-29T10:53:32;0.00;;;0.00;;
17065;SDS011;23120;52.336;21.182;2023-05-29T10:56:07;0.00;;;0.00;;
17065;SDS011;23120;52.336;21.182;2023-05-29T10:58:40;0.00;;;0.00;;
17065;SDS011;23120;52.336;21.182;2023-05-29T11:01:08;0.08;;;0.08;;
17065;SDS011;23120;52.336;21.182;2023-05-29T11:03:35;0.00;;;0.00;;
17065;SDS011;23120;52.336;21.182;2023-05-29T11:06:03;0.00;;;0.00;;
17065;SDS011;23120;52.336;21.182;2023-05-29T11:08:33;0.00;;;0.00;;
17065;SDS011;23120;52.336;21.182;2023-05-29T11:11:01;0.00;;;0.00;;
17065;SDS011;23120;52.336;21.182;2023-05-29T11:13:31;0.00;;;0.00;;
17065;SDS011;23120;52.336;21.182;2023-05-29T11:16:04;0.00;;;0.00;;
17065;SDS011;23120;52.336;21.182;2023-05-29T11:18:40;0.00;;;0.00;;
17065;SDS011;23120;52.336;21.182;2023-05-29T11:21:12;0.00;;;0.00;;
17065;SDS011;23120;52.336;21.182;2023-05-29T11:23:50;0.00;;;0.00;;
17065;SDS011;23120;52.336;21.182;2023-05-29T11:26:18;0.00;;;0.00;;
17065;SDS011;23120;52.336;21.182;2023-05-29T11:28:47;0.00;;;0.00;;
17065;SDS011;23120;52.336;21.182;2023-05-29T11:31:14;0.00;;;0.00;;
17065;SDS011;23120;52.336;21.182;2023-05-29T11:33:46;0.00;;;0.00;;
17065;SDS011;23120;52.336;21.182;2023-05-29T11:36:14;0.00;;;0.00;;
17065;SDS011;23120;52.336;21.182;2023-05-29T11:38:41;0.00;;;0.00;;
17065;SDS011;23120;52.336;21.182;2023-05-29T11:41:08;0.00;;;0.00;;
17065;SDS011;23120;52.336;21.182;2023-05-29T11:43:35;0.00;;;0.00;;
17065;SDS011;23120;52.336;21.182;2023-05-29T11:46:02;0.00;;;0.00;;
17065;SDS011;23120;52.336;21.182;2023-05-29T11:48:45;0.00;;;0.00;;
17065;SDS011;23120;52.336;21.182;2023-05-29T11:51:13;0.00;;;0.00;;
17065;SDS011;23120;52.336;21.182;2023-05-29T11:53:40;0.00;;;0.00;;
17065;SDS011;23120;52.336;21.182;2023-05-29T11:56:08;0.00;;;0.00;;
17065;SDS011;23120;52.336;21.182;2023-05-29T12:01:03;0.00;;;0.00;;
17065;SDS011;23120;52.336;21.182;2023-05-29T12:03:30;0.00;;;0.00;;
17065;SDS011;23120;52.336;21.182;2023-05-29T12:05:58;0.00;;;0.00;;
17065;SDS011;23120;52.336;21.182;2023-05-29T12:08:25;0.00;;;0.00;;
17065;SDS011;23120;52.336;21.182;2023-05-29T12:10:52;0.00;;;0.00;;
17065;SDS011;23120;52.336;21.182;2023-05-29T12:13:19;0.00;;;0.00;;
17065;SDS011;23120;52.336;21.182;2023-05-29T12:15:47;0.00;;;0.00;;
17065;SDS011;23120;52.336;21.182;2023-05-29T12:18:15;0.00;;;0.00;;
17065;SDS011;23120;52.336;21.182;2023-05-29T12:20:42;0.20;;;0.20;;
17065;SDS011;23120;52.336;21.182;2023-05-29T12:23:11;0.10;;;0.10;;
17065;SDS011;23120;52.336;21.182;2023-05-29T12:25:38;0.10;;;0.10;;
17065;SDS011;23120;52.336;21.182;2023-05-29T12:28:05;0.00;;;0.00;;
17065;SDS011;23120;52.336;21.182;2023-05-29T12:30:36;0.00;;;0.00;;
17065;SDS011;23120;52.336;21.182;2023-05-29T12:33:04;0.00;;;0.00;;
17065;SDS011;23120;52.336;21.182;2023-05-29T12:35:31;0.00;;;0.00;;
17065;SDS011;23120;52.336;21.182;2023-05-29T12:37:58;0.00;;;0.00;;
17065;SDS011;23120;52.336;21.182;2023-05-29T12:40:28;0.00;;;0.00;;
17065;SDS011;23120;52.336;21.182;2023-05-29T12:42:56;0.00;;;0.00;;
17065;SDS011;23120;52.336;21.182;2023-05-29T12:45:25;0.00;;;0.00;;
17065;SDS011;23120;52.336;21.182;2023-05-29T12:47:53;0.00;;;0.00;;
17065;SDS011;23120;52.336;21.182;2023-05-29T12:50:21;0.00;;;0.00;;
17065;SDS011;23120;52.336;21.182;2023-05-29T12:52:53;0.00;;;0.00;;
17065;SDS011;23120;52.336;21.182;2023-05-29T12:55:22;0.00;;;0.00;;
17065;SDS011;23120;52.336;21.182;2023-05-29T12:57:50;0.00;;;0.00;;
17065;SDS011;23120;52.336;21.182;2023-05-29T13:00:17;0.00;;;0.00;;
17065;SDS011;23120;52.336;21.182;2023-05-29T13:02:45;0.00;;;0.00;;
17065;SDS011;23120;52.336;21.182;2023-05-29T13:05:13;0.00;;;0.00;;
17065;SDS011;23120;52.336;21.182;2023-05-29T13:07:40;0.00;;;0.00;;
17065;SDS011;23120;52.336;21.182;2023-05-29T13:10:08;0.00;;;0.00;;
17065;SDS011;23120;52.336;21.182;2023-05-29T13:12:35;0.00;;;0.00;;
17065;SDS011;23120;52.336;21.182;2023-05-29T13:15:04;0.00;;;0.00;;
17065;SDS011;23120;52.336;21.182;2023-05-29T13:17:32;0.00;;;0.00;;
17065;SDS011;23120;52.336;21.182;2023-05-29T13:19:59;0.00;;;0.00;;
17065;SDS011;23120;52.336;21.182;2023-05-29T13:22:26;0.00;;;0.00;;
17065;SDS011;23120;52.336;21.182;2023-05-29T13:24:56;0.00;;;0.00;;
17065;SDS011;23120;52.336;21.182;2023-05-29T13:27:25;0.00;;;0.00;;
17065;SDS011;23120;52.336;21.182;2023-05-29T13:29:52;0.00;;;0.00;;
17065;SDS011;23120;52.336;21.182;2023-05-29T13:32:21;0.00;;;0.00;;
17065;SDS011;23120;52.336;21.182;2023-05-29T13:34:48;0.00;;;0.00;;
17065;SDS011;23120;52.336;21.182;2023-05-29T13:37:14;0.00;;;0.00;;
17065;SDS011;23120;52.336;21.182;2023-05-29T13:39:41;0.00;;;0.00;;
17065;SDS011;23120;52.336;21.182;2023-05-29T13:42:08;0.00;;;0.00;;
17065;SDS011;23120;52.336;21.182;2023-05-29T13:44:36;0.00;;;0.00;;
17065;SDS011;23120;52.336;21.182;2023-05-29T13:47:04;0.00;;;0.00;;
17065;SDS011;23120;52.336;21.182;2023-05-29T13:49:33;0.00;;;0.00;;
17065;SDS011;23120;52.336;21.182;2023-05-29T13:52:00;0.00;;;0.00;;
17065;SDS011;23120;52.336;21.182;2023-05-29T13:54:27;0.00;;;0.00;;
17065;SDS011;23120;52.336;21.182;2023-05-29T13:56:55;0.00;;;0.00;;
17065;SDS011;23120;52.336;21.182;2023-05-29T13:59:23;0.00;;;0.00;;
17065;SDS011;23120;52.336;21.182;2023-05-29T14:01:49;0.00;;;0.00;;
17065;SDS011;23120;52.336;21.182;2023-05-29T14:04:16;0.00;;;0.00;;
17065;SDS011;23120;52.336;21.182;2023-05-29T14:06:44;0.00;;;0.00;;
17065;SDS011;23120;52.336;21.182;2023-05-29T14:09:11;0.00;;;0.00;;
17065;SDS011;23120;52.336;21.182;2023-05-29T14:11:38;0.00;;;0.00;;
17065;SDS011;23120;52.336;21.182;2023-05-29T14:14:05;0.05;;;0.05;;
17065;SDS011;23120;52.336;21.182;2023-05-29T14:16:33;0.00;;;0.00;;
17065;SDS011;23120;52.336;21.182;2023-05-29T14:19:00;0.00;;;0.00;;
17065;SDS011;23120;52.336;21.182;2023-05-29T14:21:27;0.00;;;0.00;;
17065;SDS011;23120;52.336;21.182;2023-05-29T14:23:55;0.00;;;0.00;;
17065;SDS011;23120;52.336;21.182;2023-05-29T14:26:22;0.00;;;0.00;;
17065;SDS011;23120;52.336;21.182;2023-05-29T14:28:48;0.00;;;0.00;;
17065;SDS011;23120;52.336;21.182;2023-05-29T14:31:15;0.00;;;0.00;;
17065;SDS011;23120;52.336;21.182;2023-05-29T14:33:42;0.00;;;0.00;;
17065;SDS011;23120;52.336;21.182;2023-05-29T14:36:09;0.00;;;0.00;;
17065;SDS011;23120;52.336;21.182;2023-05-29T14:38:35;0.10;;;0.10;;
17065;SDS011;23120;52.336;21.182;2023-05-29T14:41:04;0.00;;;0.00;;
17065;SDS011;23120;52.336;21.182;2023-05-29T14:43:31;0.00;;;0.00;;
17065;SDS011;23120;52.336;21.182;2023-05-29T14:45:58;0.00;;;0.00;;
17065;SDS011;23120;52.336;21.182;2023-05-29T14:48:25;0.00;;;0.00;;
17065;SDS011;23120;52.336;21.182;2023-05-29T14:50:53;0.00;;;0.00;;
17065;SDS011;23120;52.336;21.182;2023-05-29T14:53:20;0.00;;;0.00;;